sensor_id;sensor_type;location;lat;lon;timestamp;pressure;altitude;pressure_sealevel;temperature;humidity
34073;BME280;20346;52.702;16.886;2023-01-29T00:01:38;101868.56;;;-1.13;79.34
34073;BME280;20346;52.702;16.886;2023-01-29T00:04:24;101860.19;;;-1.14;79.34
34073;BME280;20346;52.702;16.886;2023-01-29T00:07:10;101850.32;;;-1.15;79.32
34073;BME280;20346;52.702;16.886;2023-01-29T00:09:56;101846.18;;;-1.17;79.41
34073;BME280;20346;52.702;16.886;2023-01-29T00:12:43;101842.64;;;-1.17;79.39
34073;BME280;20346;52.702;16.886;2023-01-29T00:15:29;101841.25;;;-1.17;79.30
34073;BME280;20346;52.702;16.886;2023-01-29T00:18:15;101839.93;;;-1.16;79.33
34073;BME280;20346;52.702;16.886;2023-01-29T00:21:01;101837.53;;;-1.17;79.32
34073;BME280;20346;52.702;16.886;2023-01-29T00:23:48;101837.23;;;-1.19;79.32
34073;BME280;20346;52.702;16.886;2023-01-29T00:26:35;101831.07;;;-1.21;79.33
34073;BME280;20346;52.702;16.886;2023-01-29T00:29:23;101825.41;;;-1.23;79.29
34073;BME280;20346;52.702;16.886;2023-01-29T00:32:09;101820.23;;;-1.25;79.27
34073;BME280;20346;52.702;16.886;2023-01-29T00:34:55;101819.23;;;-1.27;79.30
34073;BME280;20346;52.702;16.886;2023-01-29T00:37:41;101823.40;;;-1.28;79.22
34073;BME280;20346;52.702;16.886;2023-01-29T00:40:28;101829.01;;;-1.31;79.21
34073;BME280;20346;52.702;16.886;2023-01-29T00:43:34;101833.55;;;-1.35;79.21
34073;BME280;20346;52.702;16.886;2023-01-29T00:46:38;101831.52;;;-1.39;79.26
34073;BME280;20346;52.702;16.886;2023-01-29T00:49:24;101831.73;;;-1.41;79.28
34073;BME280;20346;52.702;16.886;2023-01-29T00:52:11;101830.63;;;-1.43;79.28
34073;BME280;20346;52.702;16.886;2023-01-29T00:55:09;101835.30;;;-1.44;79.25
34073;BME280;20346;52.702;16.886;2023-01-29T00:57:56;101842.46;;;-1.46;79.23
34073;BME280;20346;52.702;16.886;2023-01-29T01:00:42;101833.39;;;-1.48;79.26
34073;BME280;20346;52.702;16.886;2023-01-29T01:03:28;101829.60;;;-1.49;79.28
34073;BME280;20346;52.702;16.886;2023-01-29T01:06:14;101831.11;;;-1.49;79.29
34073;BME280;20346;52.702;16.886;2023-01-29T01:09:00;101831.97;;;-1.49;79.27
34073;BME280;20346;52.702;16.886;2023-01-29T01:12:05;101826.73;;;-1.49;79.30
34073;BME280;20346;52.702;16.886;2023-01-29T01:14:51;101823.35;;;-1.49;79.26
34073;BME280;20346;52.702;16.886;2023-01-29T01:17:37;101819.97;;;-1.49;79.26
34073;BME280;20346;52.702;16.886;2023-01-29T01:20:24;101816.89;;;-1.50;79.22
34073;BME280;20346;52.702;16.886;2023-01-29T01:23:10;101811.96;;;-1.50;79.24
34073;BME280;20346;52.702;16.886;2023-01-29T01:25:56;101815.42;;;-1.52;79.18
34073;BME280;20346;52.702;16.886;2023-01-29T01:28:42;101818.40;;;-1.53;79.18
34073;BME280;20346;52.702;16.886;2023-01-29T01:31:28;101821.17;;;-1.52;79.31
34073;BME280;20346;52.702;16.886;2023-01-29T01:34:14;101815.50;;;-1.51;79.28
34073;BME280;20346;52.702;16.886;2023-01-29T01:37:00;101810.18;;;-1.49;79.27
34073;BME280;20346;52.702;16.886;2023-01-29T01:39:46;101817.42;;;-1.46;79.29
34073;BME280;20346;52.702;16.886;2023-01-29T01:42:33;101832.15;;;-1.43;79.35
34073;BME280;20346;52.702;16.886;2023-01-29T01:48:12;101821.83;;;-1.33;79.37
34073;BME280;20346;52.702;16.886;2023-01-29T01:51:02;101824.09;;;-1.28;79.39
34073;BME280;20346;52.702;16.886;2023-01-29T01:53:56;101816.68;;;-1.24;79.35
34073;BME280;20346;52.702;16.886;2023-01-29T01:56:47;101821.27;;;-1.21;79.33
34073;BME280;20346;52.702;16.886;2023-01-29T01:59:37;101813.19;;;-1.17;79.40
34073;BME280;20346;52.702;16.886;2023-01-29T02:02:24;101806.45;;;-1.13;79.38
34073;BME280;20346;52.702;16.886;2023-01-29T02:05:30;101801.06;;;-1.09;79.39
34073;BME280;20346;52.702;16.886;2023-01-29T02:08:52;101800.37;;;-1.06;79.39
34073;BME280;20346;52.702;16.886;2023-01-29T02:11:57;101798.48;;;-1.02;79.39
34073;BME280;20346;52.702;16.886;2023-01-29T02:14:43;101802.55;;;-0.99;79.36
34073;BME280;20346;52.702;16.886;2023-01-29T02:17:29;101804.21;;;-0.96;79.41
34073;BME280;20346;52.702;16.886;2023-01-29T02:28:57;101799.05;;;-0.87;79.42
34073;BME280;20346;52.702;16.886;2023-01-29T02:32:14;101795.84;;;-0.87;79.33
34073;BME280;20346;52.702;16.886;2023-01-29T02:44:36;101801.36;;;-0.89;79.40
34073;BME280;20346;52.702;16.886;2023-01-29T02:50:27;101797.98;;;-0.85;79.36
34073;BME280;20346;52.702;16.886;2023-01-29T02:53:34;101791.23;;;-0.85;79.40
34073;BME280;20346;52.702;16.886;2023-01-29T02:56:28;101785.77;;;-0.82;79.41
34073;BME280;20346;52.702;16.886;2023-01-29T02:59:19;101783.13;;;-0.81;79.36
34073;BME280;20346;52.702;16.886;2023-01-29T03:02:10;101785.89;;;-0.80;79.38
34073;BME280;20346;52.702;16.886;2023-01-29T03:04:59;101785.83;;;-0.78;79.44
34073;BME280;20346;52.702;16.886;2023-01-29T03:07:53;101779.17;;;-0.75;79.42
34073;BME280;20346;52.702;16.886;2023-01-29T03:10:52;101768.91;;;-0.74;79.42
34073;BME280;20346;52.702;16.886;2023-01-29T03:13:44;101762.71;;;-0.73;79.35
34073;BME280;20346;52.702;16.886;2023-01-29T03:16:53;101754.87;;;-0.70;79.48
34073;BME280;20346;52.702;16.886;2023-01-29T03:19:39;101751.75;;;-0.68;79.48
34073;BME280;20346;52.702;16.886;2023-01-29T03:22:26;101747.06;;;-0.67;79.46
34073;BME280;20346;52.702;16.886;2023-01-29T03:25:12;101744.88;;;-0.67;79.36
34073;BME280;20346;52.702;16.886;2023-01-29T03:28:18;101739.59;;;-0.68;79.39
34073;BME280;20346;52.702;16.886;2023-01-29T03:31:24;101732.99;;;-0.68;79.43
34073;BME280;20346;52.702;16.886;2023-01-29T03:34:32;101731.84;;;-0.67;79.41
34073;BME280;20346;52.702;16.886;2023-01-29T03:37:42;101731.52;;;-0.67;79.37
34073;BME280;20346;52.702;16.886;2023-01-29T03:40:35;101725.21;;;-0.67;79.39
34073;BME280;20346;52.702;16.886;2023-01-29T03:46:35;101725.95;;;-0.66;79.48
34073;BME280;20346;52.702;16.886;2023-01-29T03:52:39;101722.05;;;-0.62;79.43
34073;BME280;20346;52.702;16.886;2023-01-29T04:01:25;101698.83;;;-0.59;79.40
34073;BME280;20346;52.702;16.886;2023-01-29T04:04:15;101701.73;;;-0.58;79.45
34073;BME280;20346;52.702;16.886;2023-01-29T04:07:06;101698.02;;;-0.58;79.38
34073;BME280;20346;52.702;16.886;2023-01-29T04:09:55;101690.71;;;-0.59;79.42
34073;BME280;20346;52.702;16.886;2023-01-29T04:12:44;101678.64;;;-0.60;79.36
34073;BME280;20346;52.702;16.886;2023-01-29T04:15:33;101674.87;;;-0.61;79.44
34073;BME280;20346;52.702;16.886;2023-01-29T04:18:21;101665.05;;;-0.61;79.48
34073;BME280;20346;52.702;16.886;2023-01-29T04:21:07;101667.08;;;-0.61;79.44
34073;BME280;20346;52.702;16.886;2023-01-29T04:23:53;101669.64;;;-0.61;79.43
34073;BME280;20346;52.702;16.886;2023-01-29T04:29:30;101666.45;;;-0.60;79.56
34073;BME280;20346;52.702;16.886;2023-01-29T04:35:19;101648.53;;;-0.63;79.67
34073;BME280;20346;52.702;16.886;2023-01-29T04:48:11;101644.61;;;-0.68;79.78
34073;BME280;20346;52.702;16.886;2023-01-29T04:53:56;101639.34;;;-0.64;79.83
34073;BME280;20346;52.702;16.886;2023-01-29T04:56:53;101640.15;;;-0.65;79.84
34073;BME280;20346;52.702;16.886;2023-01-29T04:59:43;101640.65;;;-0.65;79.86
34073;BME280;20346;52.702;16.886;2023-01-29T05:02:29;101634.41;;;-0.64;79.84
34073;BME280;20346;52.702;16.886;2023-01-29T05:05:17;101629.14;;;-0.65;79.80
34073;BME280;20346;52.702;16.886;2023-01-29T05:08:05;101624.11;;;-0.64;79.82
34073;BME280;20346;52.702;16.886;2023-01-29T05:10:51;101620.29;;;-0.62;79.86
34073;BME280;20346;52.702;16.886;2023-01-29T05:13:39;101625.02;;;-0.63;79.89
34073;BME280;20346;52.702;16.886;2023-01-29T05:16:27;101623.22;;;-0.61;79.87
34073;BME280;20346;52.702;16.886;2023-01-29T05:19:14;101617.02;;;-0.59;79.94
34073;BME280;20346;52.702;16.886;2023-01-29T05:22:02;101614.56;;;-0.58;79.88
34073;BME280;20346;52.702;16.886;2023-01-29T05:24:50;101608.65;;;-0.58;79.84
34073;BME280;20346;52.702;16.886;2023-01-29T05:27:36;101612.55;;;-0.57;79.90
34073;BME280;20346;52.702;16.886;2023-01-29T05:30:42;101616.82;;;-0.57;79.90
34073;BME280;20346;52.702;16.886;2023-01-29T05:33:29;101630.77;;;-0.55;79.95
34073;BME280;20346;52.702;16.886;2023-01-29T05:36:16;101636.92;;;-0.54;79.92
34073;BME280;20346;52.702;16.886;2023-01-29T05:39:02;101639.85;;;-0.53;79.96
34073;BME280;20346;52.702;16.886;2023-01-29T05:41:48;101642.08;;;-0.52;79.97
34073;BME280;20346;52.702;16.886;2023-01-29T05:44:34;101647.72;;;-0.51;80.01
34073;BME280;20346;52.702;16.886;2023-01-29T05:47:20;101645.92;;;-0.49;80.11
34073;BME280;20346;52.702;16.886;2023-01-29T05:50:07;101643.36;;;-0.50;80.09
34073;BME280;20346;52.702;16.886;2023-01-29T05:52:57;101647.80;;;-0.49;80.20
34073;BME280;20346;52.702;16.886;2023-01-29T05:55:44;101655.89;;;-0.50;80.13
34073;BME280;20346;52.702;16.886;2023-01-29T05:58:31;101664.16;;;-0.50;80.20
34073;BME280;20346;52.702;16.886;2023-01-29T06:01:18;101662.63;;;-0.50;80.23
34073;BME280;20346;52.702;16.886;2023-01-29T06:04:04;101662.30;;;-0.50;80.29
34073;BME280;20346;52.702;16.886;2023-01-29T06:06:50;101661.51;;;-0.49;80.33
34073;BME280;20346;52.702;16.886;2023-01-29T06:09:36;101654.27;;;-0.48;80.35
34073;BME280;20346;52.702;16.886;2023-01-29T06:12:23;101656.15;;;-0.48;80.35
34073;BME280;20346;52.702;16.886;2023-01-29T06:15:09;101657.00;;;-0.48;80.31
34073;BME280;20346;52.702;16.886;2023-01-29T06:17:55;101661.20;;;-0.48;80.39
34073;BME280;20346;52.702;16.886;2023-01-29T06:20:41;101672.79;;;-0.47;80.42
34073;BME280;20346;52.702;16.886;2023-01-29T06:23:28;101679.80;;;-0.45;80.54
34073;BME280;20346;52.702;16.886;2023-01-29T06:26:14;101683.41;;;-0.44;80.43
34073;BME280;20346;52.702;16.886;2023-01-29T06:29:00;101680.40;;;-0.44;80.45
34073;BME280;20346;52.702;16.886;2023-01-29T06:31:46;101681.02;;;-0.41;80.52
34073;BME280;20346;52.702;16.886;2023-01-29T06:34:33;101680.93;;;-0.39;80.55
34073;BME280;20346;52.702;16.886;2023-01-29T06:37:19;101684.56;;;-0.38;80.60
34073;BME280;20346;52.702;16.886;2023-01-29T06:40:05;101686.95;;;-0.37;80.55
34073;BME280;20346;52.702;16.886;2023-01-29T06:42:51;101683.27;;;-0.37;80.58
34073;BME280;20346;52.702;16.886;2023-01-29T06:45:37;101666.66;;;-0.37;80.56
34073;BME280;20346;52.702;16.886;2023-01-29T06:48:23;101665.16;;;-0.36;80.56
34073;BME280;20346;52.702;16.886;2023-01-29T06:51:09;101662.36;;;-0.34;80.61
34073;BME280;20346;52.702;16.886;2023-01-29T06:53:55;101648.08;;;-0.31;80.61
34073;BME280;20346;52.702;16.886;2023-01-29T06:56:41;101645.70;;;-0.28;80.62
34073;BME280;20346;52.702;16.886;2023-01-29T06:59:27;101631.89;;;-0.26;80.56
34073;BME280;20346;52.702;16.886;2023-01-29T07:02:13;101635.14;;;-0.25;80.61
34073;BME280;20346;52.702;16.886;2023-01-29T07:04:59;101638.48;;;-0.23;80.60
34073;BME280;20346;52.702;16.886;2023-01-29T07:07:45;101641.81;;;-0.20;80.64
34073;BME280;20346;52.702;16.886;2023-01-29T07:10:31;101640.92;;;-0.17;80.66
34073;BME280;20346;52.702;16.886;2023-01-29T07:13:17;101637.41;;;-0.16;80.58
34073;BME280;20346;52.702;16.886;2023-01-29T07:16:03;101634.30;;;-0.14;80.69
34073;BME280;20346;52.702;16.886;2023-01-29T07:18:51;101627.86;;;-0.14;80.68
34073;BME280;20346;52.702;16.886;2023-01-29T07:21:36;101626.96;;;-0.11;80.79
34073;BME280;20346;52.702;16.886;2023-01-29T07:24:22;101628.30;;;-0.08;80.72
34073;BME280;20346;52.702;16.886;2023-01-29T07:27:09;101628.05;;;-0.06;80.74
34073;BME280;20346;52.702;16.886;2023-01-29T07:29:55;101632.13;;;-0.05;80.75
34073;BME280;20346;52.702;16.886;2023-01-29T07:32:41;101632.52;;;-0.04;80.75
34073;BME280;20346;52.702;16.886;2023-01-29T07:35:27;101629.92;;;-0.02;80.73
34073;BME280;20346;52.702;16.886;2023-01-29T07:38:12;101634.05;;;0.00;80.79
34073;BME280;20346;52.702;16.886;2023-01-29T07:40:58;101641.60;;;0.03;80.80
34073;BME280;20346;52.702;16.886;2023-01-29T07:43:45;101640.92;;;0.07;80.82
34073;BME280;20346;52.702;16.886;2023-01-29T07:46:30;101642.08;;;0.10;80.87
34073;BME280;20346;52.702;16.886;2023-01-29T07:49:16;101644.73;;;0.13;80.82
34073;BME280;20346;52.702;16.886;2023-01-29T07:52:02;101648.66;;;0.13;80.77
34073;BME280;20346;52.702;16.886;2023-01-29T07:54:48;101652.09;;;0.14;80.80
34073;BME280;20346;52.702;16.886;2023-01-29T07:57:34;101652.60;;;0.15;80.88
34073;BME280;20346;52.702;16.886;2023-01-29T08:00:20;101645.80;;;0.17;80.95
34073;BME280;20346;52.702;16.886;2023-01-29T08:03:10;101640.83;;;0.21;80.93
34073;BME280;20346;52.702;16.886;2023-01-29T08:05:56;101638.23;;;0.23;80.95
34073;BME280;20346;52.702;16.886;2023-01-29T08:08:42;101640.24;;;0.27;81.03
34073;BME280;20346;52.702;16.886;2023-01-29T08:11:28;101639.44;;;0.31;81.03
34073;BME280;20346;52.702;16.886;2023-01-29T08:14:14;101636.70;;;0.35;80.98
34073;BME280;20346;52.702;16.886;2023-01-29T08:17:00;101628.67;;;0.38;81.01
34073;BME280;20346;52.702;16.886;2023-01-29T08:19:46;101615.25;;;0.41;81.03
34073;BME280;20346;52.702;16.886;2023-01-29T08:22:32;101606.96;;;0.46;81.09
34073;BME280;20346;52.702;16.886;2023-01-29T08:25:18;101600.93;;;0.48;81.05
34073;BME280;20346;52.702;16.886;2023-01-29T08:28:04;101592.92;;;0.51;81.05
34073;BME280;20346;52.702;16.886;2023-01-29T08:30:50;101591.98;;;0.54;81.10
34073;BME280;20346;52.702;16.886;2023-01-29T08:33:36;101591.52;;;0.55;81.04
34073;BME280;20346;52.702;16.886;2023-01-29T08:36:22;101583.30;;;0.53;80.96
34073;BME280;20346;52.702;16.886;2023-01-29T08:39:07;101579.73;;;0.52;81.02
34073;BME280;20346;52.702;16.886;2023-01-29T08:41:53;101583.48;;;0.53;81.08
34073;BME280;20346;52.702;16.886;2023-01-29T08:44:39;101573.06;;;0.55;81.13
34073;BME280;20346;52.702;16.886;2023-01-29T08:47:26;101566.42;;;0.55;81.09
34073;BME280;20346;52.702;16.886;2023-01-29T08:50:12;101573.98;;;0.53;81.11
34073;BME280;20346;52.702;16.886;2023-01-29T08:52:58;101577.32;;;0.51;81.12
34073;BME280;20346;52.702;16.886;2023-01-29T08:55:45;101577.09;;;0.50;81.17
34073;BME280;20346;52.702;16.886;2023-01-29T08:58:32;101580.64;;;0.49;81.19
34073;BME280;20346;52.702;16.886;2023-01-29T09:01:18;101589.29;;;0.49;81.25
34073;BME280;20346;52.702;16.886;2023-01-29T09:04:04;101591.89;;;0.47;81.24
34073;BME280;20346;52.702;16.886;2023-01-29T09:06:50;101590.50;;;0.46;81.28
34073;BME280;20346;52.702;16.886;2023-01-29T09:09:37;101587.38;;;0.44;81.25
34073;BME280;20346;52.702;16.886;2023-01-29T09:12:23;101582.41;;;0.43;81.26
34073;BME280;20346;52.702;16.886;2023-01-29T09:15:09;101577.86;;;0.43;81.28
34073;BME280;20346;52.702;16.886;2023-01-29T09:17:55;101585.28;;;0.47;81.36
34073;BME280;20346;52.702;16.886;2023-01-29T09:20:41;101584.39;;;0.50;81.37
34073;BME280;20346;52.702;16.886;2023-01-29T09:23:28;101583.10;;;0.47;81.25
34073;BME280;20346;52.702;16.886;2023-01-29T09:26:15;101584.79;;;0.47;81.34
34073;BME280;20346;52.702;16.886;2023-01-29T09:29:01;101587.20;;;0.48;81.32
34073;BME280;20346;52.702;16.886;2023-01-29T09:31:47;101587.67;;;0.47;81.34
34073;BME280;20346;52.702;16.886;2023-01-29T09:34:33;101584.13;;;0.47;81.33
34073;BME280;20346;52.702;16.886;2023-01-29T09:37:19;101587.98;;;0.50;81.40
34073;BME280;20346;52.702;16.886;2023-01-29T09:40:13;101585.98;;;0.52;81.45
34073;BME280;20346;52.702;16.886;2023-01-29T09:43:03;101588.30;;;0.55;81.49
34073;BME280;20346;52.702;16.886;2023-01-29T09:48:42;101590.41;;;0.57;81.42
34073;BME280;20346;52.702;16.886;2023-01-29T09:51:30;101584.99;;;0.57;81.44
34073;BME280;20346;52.702;16.886;2023-01-29T09:54:22;101577.19;;;0.57;81.46
34073;BME280;20346;52.702;16.886;2023-01-29T09:57:09;101570.47;;;0.58;81.48
34073;BME280;20346;52.702;16.886;2023-01-29T10:00:00;101567.52;;;0.62;81.55
34073;BME280;20346;52.702;16.886;2023-01-29T10:24:40;101551.71;;;0.78;81.56
34073;BME280;20346;52.702;16.886;2023-01-29T10:27:32;101542.38;;;0.78;81.52
34073;BME280;20346;52.702;16.886;2023-01-29T10:33:14;101533.24;;;0.79;81.60
34073;BME280;20346;52.702;16.886;2023-01-29T10:36:03;101531.08;;;0.80;81.58
34073;BME280;20346;52.702;16.886;2023-01-29T10:38:51;101525.45;;;0.79;81.52
34073;BME280;20346;52.702;16.886;2023-01-29T10:50:20;101485.60;;;0.85;81.59
34073;BME280;20346;52.702;16.886;2023-01-29T11:02:14;101496.77;;;0.75;81.59
34073;BME280;20346;52.702;16.886;2023-01-29T11:05:01;101502.02;;;0.75;81.70
34073;BME280;20346;52.702;16.886;2023-01-29T11:07:47;101497.98;;;0.75;81.72
34073;BME280;20346;52.702;16.886;2023-01-29T11:10:39;101489.24;;;0.77;81.74
34073;BME280;20346;52.702;16.886;2023-01-29T11:13:28;101478.40;;;0.78;81.80
34073;BME280;20346;52.702;16.886;2023-01-29T11:16:17;101484.52;;;0.79;81.76
34073;BME280;20346;52.702;16.886;2023-01-29T11:19:03;101487.06;;;0.78;81.63
34073;BME280;20346;52.702;16.886;2023-01-29T11:21:56;101477.90;;;0.78;81.79
34073;BME280;20346;52.702;16.886;2023-01-29T11:24:42;101468.84;;;0.77;81.72
34073;BME280;20346;52.702;16.886;2023-01-29T11:27:31;101464.07;;;0.76;81.78
34073;BME280;20346;52.702;16.886;2023-01-29T11:30:30;101466.30;;;0.77;81.81
34073;BME280;20346;52.702;16.886;2023-01-29T11:33:21;101463.58;;;0.76;81.81
34073;BME280;20346;52.702;16.886;2023-01-29T11:36:28;101441.52;;;0.77;81.85
34073;BME280;20346;52.702;16.886;2023-01-29T11:42:04;101429.79;;;0.80;81.91
34073;BME280;20346;52.702;16.886;2023-01-29T11:44:52;101423.54;;;0.81;81.92
34073;BME280;20346;52.702;16.886;2023-01-29T11:47:38;101429.52;;;0.83;81.87
34073;BME280;20346;52.702;16.886;2023-01-29T11:50:25;101424.60;;;0.82;81.86
34073;BME280;20346;52.702;16.886;2023-01-29T11:56:19;101416.95;;;0.87;81.93
34073;BME280;20346;52.702;16.886;2023-01-29T11:59:53;101418.92;;;0.89;81.94
34073;BME280;20346;52.702;16.886;2023-01-29T12:02:21;101416.26;;;0.90;81.94
34073;BME280;20346;52.702;16.886;2023-01-29T12:05:20;101409.44;;;0.90;81.93
34073;BME280;20346;52.702;16.886;2023-01-29T12:08:14;101410.52;;;0.92;81.97
34073;BME280;20346;52.702;16.886;2023-01-29T12:13:55;101406.61;;;0.91;81.99
34073;BME280;20346;52.702;16.886;2023-01-29T12:16:58;101400.49;;;0.91;81.96
34073;BME280;20346;52.702;16.886;2023-01-29T12:19:49;101403.74;;;0.92;82.06
34073;BME280;20346;52.702;16.886;2023-01-29T12:22:46;101404.83;;;0.94;82.04
34073;BME280;20346;52.702;16.886;2023-01-29T12:28:22;101391.88;;;0.97;82.13
34073;BME280;20346;52.702;16.886;2023-01-29T12:31:18;101389.87;;;0.98;82.13
34073;BME280;20346;52.702;16.886;2023-01-29T12:40:29;101389.38;;;0.98;82.14
34073;BME280;20346;52.702;16.886;2023-01-29T12:43:18;101384.75;;;0.97;82.20
34073;BME280;20346;52.702;16.886;2023-01-29T12:46:08;101375.92;;;0.98;82.14
34073;BME280;20346;52.702;16.886;2023-01-29T12:48:57;101374.41;;;0.97;82.18
34073;BME280;20346;52.702;16.886;2023-01-29T12:51:50;101370.07;;;1.00;82.20
34073;BME280;20346;52.702;16.886;2023-01-29T12:54:44;101367.22;;;1.01;82.24
34073;BME280;20346;52.702;16.886;2023-01-29T13:00:51;101355.42;;;1.05;82.22
34073;BME280;20346;52.702;16.886;2023-01-29T13:03:48;101345.27;;;1.05;82.29
34073;BME280;20346;52.702;16.886;2023-01-29T13:06:37;101339.70;;;1.07;82.23
34073;BME280;20346;52.702;16.886;2023-01-29T13:09:27;101334.38;;;1.04;82.21
34073;BME280;20346;52.702;16.886;2023-01-29T13:12:18;101332.96;;;1.02;82.20
34073;BME280;20346;52.702;16.886;2023-01-29T13:15:12;101334.14;;;1.02;82.28
34073;BME280;20346;52.702;16.886;2023-01-29T13:21:06;101331.96;;;1.03;82.30
34073;BME280;20346;52.702;16.886;2023-01-29T13:23:59;101336.84;;;1.01;82.30
34073;BME280;20346;52.702;16.886;2023-01-29T13:26:47;101339.67;;;1.00;82.32
34073;BME280;20346;52.702;16.886;2023-01-29T13:29:34;101345.10;;;0.99;82.33
34073;BME280;20346;52.702;16.886;2023-01-29T13:32:22;101341.85;;;0.99;82.33
34073;BME280;20346;52.702;16.886;2023-01-29T13:35:12;101342.30;;;0.97;82.34
34073;BME280;20346;52.702;16.886;2023-01-29T13:38:00;101337.92;;;0.98;82.37
34073;BME280;20346;52.702;16.886;2023-01-29T13:40:49;101331.88;;;0.95;82.24
34073;BME280;20346;52.702;16.886;2023-01-29T13:43:36;101330.82;;;0.94;82.31
34073;BME280;20346;52.702;16.886;2023-01-29T13:46:23;101329.52;;;0.96;82.41
34073;BME280;20346;52.702;16.886;2023-01-29T13:49:17;101325.64;;;0.96;82.37
34073;BME280;20346;52.702;16.886;2023-01-29T13:52:16;101327.86;;;0.97;82.34
34073;BME280;20346;52.702;16.886;2023-01-29T13:55:07;101323.61;;;0.97;82.46
34073;BME280;20346;52.702;16.886;2023-01-29T13:57:54;101318.74;;;0.98;82.48
34073;BME280;20346;52.702;16.886;2023-01-29T14:06:30;101309.62;;;0.95;82.48
34073;BME280;20346;52.702;16.886;2023-01-29T14:12:38;101306.04;;;0.94;82.49
34073;BME280;20346;52.702;16.886;2023-01-29T14:15:26;101299.14;;;0.96;82.48
34073;BME280;20346;52.702;16.886;2023-01-29T14:21:04;101294.15;;;0.94;82.49
34073;BME280;20346;52.702;16.886;2023-01-29T14:23:52;101295.31;;;0.93;82.47
34073;BME280;20346;52.702;16.886;2023-01-29T14:29:45;101299.25;;;0.89;82.50
34073;BME280;20346;52.702;16.886;2023-01-29T14:32:32;101296.55;;;0.90;82.60
34073;BME280;20346;52.702;16.886;2023-01-29T14:35:19;101288.80;;;0.91;82.58
34073;BME280;20346;52.702;16.886;2023-01-29T14:38:06;101287.65;;;0.92;82.58
34073;BME280;20346;52.702;16.886;2023-01-29T14:41:13;101283.01;;;0.91;82.64
34073;BME280;20346;52.702;16.886;2023-01-29T14:47:11;101273.45;;;0.89;82.67
34073;BME280;20346;52.702;16.886;2023-01-29T14:50:37;101277.69;;;0.89;82.61
34073;BME280;20346;52.702;16.886;2023-01-29T14:53:13;101272.61;;;0.90;82.70
34073;BME280;20346;52.702;16.886;2023-01-29T14:56:11;101273.85;;;0.91;82.70
34073;BME280;20346;52.702;16.886;2023-01-29T15:01:52;101277.59;;;0.91;82.68
34073;BME280;20346;52.702;16.886;2023-01-29T15:04:44;101276.55;;;0.90;82.68
34073;BME280;20346;52.702;16.886;2023-01-29T15:07:38;101276.88;;;0.90;82.75
34073;BME280;20346;52.702;16.886;2023-01-29T15:14:15;101249.11;;;0.92;82.69
34073;BME280;20346;52.702;16.886;2023-01-29T15:20:25;101244.42;;;0.94;82.83
34073;BME280;20346;52.702;16.886;2023-01-29T15:23:27;101244.11;;;0.95;82.85
34073;BME280;20346;52.702;16.886;2023-01-29T15:26:18;101244.58;;;0.93;82.79
34073;BME280;20346;52.702;16.886;2023-01-29T15:29:04;101238.67;;;0.94;82.88
34073;BME280;20346;52.702;16.886;2023-01-29T15:31:51;101233.95;;;0.95;82.85
34073;BME280;20346;52.702;16.886;2023-01-29T15:34:40;101241.43;;;0.96;82.85
34073;BME280;20346;52.702;16.886;2023-01-29T15:37:28;101238.70;;;0.95;82.89
34073;BME280;20346;52.702;16.886;2023-01-29T15:40:15;101238.37;;;0.95;82.93
34073;BME280;20346;52.702;16.886;2023-01-29T15:43:02;101235.98;;;0.95;82.90
34073;BME280;20346;52.702;16.886;2023-01-29T15:46:46;101235.99;;;0.96;82.89
34073;BME280;20346;52.702;16.886;2023-01-29T15:49:16;101234.09;;;0.95;82.91
34073;BME280;20346;52.702;16.886;2023-01-29T15:52:13;101229.84;;;0.94;82.91
34073;BME280;20346;52.702;16.886;2023-01-29T15:55:02;101222.70;;;0.94;82.96
34073;BME280;20346;52.702;16.886;2023-01-29T15:57:48;101217.31;;;0.95;82.96
34073;BME280;20346;52.702;16.886;2023-01-29T16:00:35;101211.83;;;0.94;82.90
34073;BME280;20346;52.702;16.886;2023-01-29T16:03:22;101207.20;;;0.93;82.99
34073;BME280;20346;52.702;16.886;2023-01-29T16:06:09;101206.16;;;0.92;83.00
34073;BME280;20346;52.702;16.886;2023-01-29T16:08:56;101209.07;;;0.92;82.98
34073;BME280;20346;52.702;16.886;2023-01-29T16:11:44;101198.50;;;0.91;83.02
34073;BME280;20346;52.702;16.886;2023-01-29T16:14:31;101194.19;;;0.89;82.97
34073;BME280;20346;52.702;16.886;2023-01-29T16:17:22;101187.88;;;0.88;83.00
34073;BME280;20346;52.702;16.886;2023-01-29T16:20:19;101193.29;;;0.87;83.01
34073;BME280;20346;52.702;16.886;2023-01-29T16:23:05;101191.39;;;0.87;83.00
34073;BME280;20346;52.702;16.886;2023-01-29T16:25:52;101182.55;;;0.86;83.03
34073;BME280;20346;52.702;16.886;2023-01-29T16:28:40;101183.89;;;0.85;83.05
34073;BME280;20346;52.702;16.886;2023-01-29T16:31:27;101178.63;;;0.86;83.11
34073;BME280;20346;52.702;16.886;2023-01-29T16:34:15;101175.25;;;0.86;83.08
34073;BME280;20346;52.702;16.886;2023-01-29T16:37:04;101174.23;;;0.86;83.11
34073;BME280;20346;52.702;16.886;2023-01-29T16:39:51;101172.69;;;0.86;83.05
34073;BME280;20346;52.702;16.886;2023-01-29T16:42:38;101172.52;;;0.86;83.10
34073;BME280;20346;52.702;16.886;2023-01-29T16:45:26;101174.89;;;0.86;83.17
34073;BME280;20346;52.702;16.886;2023-01-29T16:48:24;101175.44;;;0.87;83.20
34073;BME280;20346;52.702;16.886;2023-01-29T16:51:18;101171.88;;;0.86;83.16
34073;BME280;20346;52.702;16.886;2023-01-29T16:54:06;101171.23;;;0.88;83.26
34073;BME280;20346;52.702;16.886;2023-01-29T16:56:57;101170.60;;;0.89;83.17
34073;BME280;20346;52.702;16.886;2023-01-29T16:59:45;101172.86;;;0.91;83.24
34073;BME280;20346;52.702;16.886;2023-01-29T17:02:35;101166.10;;;0.92;83.26
34073;BME280;20346;52.702;16.886;2023-01-29T17:05:25;101166.83;;;0.93;83.26
34073;BME280;20346;52.702;16.886;2023-01-29T17:08:19;101165.82;;;0.93;83.26
34073;BME280;20346;52.702;16.886;2023-01-29T17:11:07;101162.61;;;0.94;83.28
34073;BME280;20346;52.702;16.886;2023-01-29T17:13:54;101163.98;;;0.94;83.27